Time;durP1;ratioP1;P1;durP2;ratioP2;P2;SDS_P1;SDS_P2;PMS_P1;PMS_P2;Temp;Humidity;BMP_temperature;BMP_pressure;BME280_temperature;BME280_humidity;BME280_pressure;Samples;Min_cycle;Max_cycle;Signal;HPM_P1;HPM_P2
2022/09/10 00:01:34;;;;;;;;;;;;;;;;;;;;;
2022/09/10 00:04:29;;;;;;;5.90;2.70;;;15.50;99.90;;;;;;6075648;23;20006;-82
2022/09/10 00:07:27;;;;;;;4.03;2.20;;;15.50;99.90;;;;;;6075282;23;20011;-84
2022/09/10 00:10:00;;;;;;;4.07;1.70;;;15.50;99.90;;;;;;6056702;23;20010;-81
2022/09/10 00:12:26;;;;;;;5.45;1.73;;;15.50;99.90;;;;;;6048383;23;20022;-81
2022/09/10 00:14:55;;;;;;;6.82;1.67;;;15.60;99.90;;;;;;6070138;23;20007;-80
2022/09/10 00:17:22;;;;;;;7.07;2.33;;;15.60;99.90;;;;;;6071881;23;20552;-80
2022/09/10 00:20:01;;;;;;;5.70;2.28;;;15.60;99.90;;;;;;6049197;23;20007;-80
2022/09/10 00:22:30;;;;;;;6.68;2.08;;;15.60;99.90;;;;;;6048917;23;20007;-80
2022/09/10 00:24:56;;;;;;;6.00;1.42;;;15.70;99.90;;;;;;6072509;23;20003;-81
2022/09/10 00:27:46;;;;;;;4.57;1.60;;;15.60;99.90;;;;;;6046502;23;20037;-81
2022/09/10 00:30:21;;;;;;;7.10;2.50;;;15.70;99.90;;;;;;6043121;23;20018;-80
2022/09/10 00:32:51;;;;;;;6.57;2.60;;;15.70;99.90;;;;;;6070313;23;20033;-82
2022/09/10 00:35:46;;;;;;;10.35;2.30;;;15.70;99.90;;;;;;6050018;23;20347;-81
2022/09/10 00:39:04;;;;;;;5.80;2.47;;;15.70;99.90;;;;;;6044497;23;20011;-81
2022/09/10 00:41:57;;;;;;;6.15;3.28;;;15.70;99.90;;;;;;6071164;23;20041;-81
2022/09/10 00:45:07;;;;;;;5.70;3.25;;;15.70;99.90;;;;;;6057519;23;20562;-82
2022/09/10 00:47:43;;;;;;;7.93;3.78;;;15.70;99.90;;;;;;6068993;23;20026;-81
2022/09/10 00:50:33;;;;;;;7.53;3.22;;;15.70;99.90;;;;;;6045594;23;20013;-82
2022/09/10 00:53:31;;;;;;;10.35;4.88;;;15.70;99.90;;;;;;6020076;23;20007;-82
2022/09/10 00:56:13;;;;;;;9.07;4.13;;;15.70;99.90;;;;;;6051647;23;20019;-81
2022/09/10 00:58:53;;;;;;;;;;;15.70;99.90;;;;;;6092757;23;20007;-80
2022/09/10 01:01:45;;;;;;;6.97;3.60;;;15.70;99.90;;;;;;6090507;23;20246;-81
2022/09/10 01:04:20;;;;;;;4.88;2.80;;;15.70;99.90;;;;;;6090655;23;20018;-80
2022/09/10 01:06:53;;;;;;;5.05;3.35;;;15.70;99.90;;;;;;6094776;23;20015;-80
2022/09/10 01:09:26;;;;;;;5.00;2.85;;;15.70;99.90;;;;;;6020992;23;20010;-81
2022/09/10 01:12:18;;;;;;;6.90;4.78;;;15.80;99.90;;;;;;6090340;23;20007;-81
2022/09/10 01:15:09;;;;;;;6.22;3.92;;;15.70;99.90;;;;;;6078230;23;20014;-83
2022/09/10 01:18:08;;;;;;;6.25;4.38;;;15.80;99.90;;;;;;6046216;23;20011;-81
2022/09/10 01:20:57;;;;;;;9.23;6.15;;;15.70;99.90;;;;;;6092245;23;20011;-81
2022/09/10 01:24:03;;;;;;;10.98;6.22;;;15.80;99.90;;;;;;6092867;23;20017;-81
2022/09/10 01:27:14;;;;;;;9.00;5.57;;;15.80;99.90;;;;;;6027071;23;20293;-81
2022/09/10 01:30:11;;;;;;;10.15;6.57;;;15.80;99.90;;;;;;6045814;23;20019;-81
2022/09/10 01:33:39;;;;;;;12.68;7.93;;;15.80;99.90;;;;;;6071781;23;20425;-80
2022/09/10 01:36:19;;;;;;;10.85;7.50;;;15.80;99.90;;;;;;6048332;23;20017;-81
2022/09/10 01:38:50;;;;;;;12.30;8.82;;;15.80;99.90;;;;;;6023432;23;20018;-81
2022/09/10 01:41:50;;;;;;;15.25;10.05;;;15.80;99.90;;;;;;6069224;23;20013;-82
2022/09/10 01:44:40;;;;;;;11.07;8.50;;;15.80;99.90;;;;;;6094557;23;20014;-80
2022/09/10 01:47:32;;;;;;;9.63;7.15;;;15.80;99.90;;;;;;6069966;23;20007;-80
2022/09/10 01:50:30;;;;;;;10.40;8.30;;;15.80;99.90;;;;;;6046534;23;20010;-81
2022/09/10 01:53:10;;;;;;;14.40;10.05;;;15.80;99.90;;;;;;6044441;23;20014;-81
2022/09/10 01:56:16;;;;;;;12.52;8.10;;;15.80;99.90;;;;;;6092146;23;20007;-81
2022/09/10 01:59:05;;;;;;;12.02;9.70;;;15.80;99.90;;;;;;6046836;23;20018;-80
2022/09/10 02:01:56;;;;;;;12.27;8.85;;;15.80;99.90;;;;;;6063111;23;20003;-79
2022/09/10 02:05:28;;;;;;;12.13;8.80;;;15.80;99.90;;;;;;6113947;23;20055;-82
2022/09/10 02:08:36;;;;;;;8.88;6.93;;;15.80;99.90;;;;;;6126057;23;20176;-80
2022/09/10 02:11:13;;;;;;;11.52;8.68;;;15.80;99.90;;;;;;6073483;23;20031;-80
2022/09/10 02:13:52;;;;;;;15.65;10.50;;;15.90;99.90;;;;;;6100521;23;20013;-80
2022/09/10 02:17:04;;;;;;;11.55;8.27;;;15.80;99.90;;;;;;6075520;23;20014;-83
2022/09/10 02:23:58;;;;;;;8.52;7.60;;;15.80;99.90;;;;;;6074643;23;20007;-83
2022/09/10 02:27:15;;;;;;;16.60;9.80;;;15.90;99.90;;;;;;6050404;23;20014;-82
2022/09/10 02:30:48;;;;;;;14.43;10.77;;;15.80;99.90;;;;;;5990651;23;20054;-83
2022/09/10 02:33:20;;;;;;;20.90;14.80;;;15.80;99.90;;;;;;5964719;24;20387;-83
2022/09/10 02:37:02;;;;;;;15.20;10.93;;;15.80;99.90;;;;;;5983410;24;20016;-83
2022/09/10 02:39:45;;;;;;;8.95;7.53;;;15.80;99.90;;;;;;5984320;24;20022;-82
2022/09/10 02:50:24;;;;;;;9.85;8.15;;;15.80;99.90;;;;;;6089009;23;20031;-83
2022/09/10 02:53:50;;;;;;;15.05;9.20;;;15.80;99.90;;;;;;6051601;23;20023;-81
2022/09/10 02:57:06;;;;;;;13.50;8.30;;;15.90;99.90;;;;;;6044196;23;20003;-81
2022/09/10 03:07:08;;;;;;;12.18;7.57;;;15.90;99.90;;;;;;6012339;23;20027;-82
2022/09/10 03:10:26;;;;;;;11.45;8.10;;;15.90;99.90;;;;;;6070055;23;20042;-81
2022/09/10 03:13:57;;;;;;;11.95;9.07;;;15.90;99.90;;;;;;6054596;23;20014;-82
2022/09/10 03:16:52;;;;;;;12.32;8.48;;;15.90;99.90;;;;;;6081946;23;20017;-82
2022/09/10 03:23:23;;;;;;;12.10;9.07;;;15.90;99.90;;;;;;6070311;23;20317;-80
2022/09/10 03:26:59;;;;;;;9.90;8.27;;;15.90;99.90;;;;;;6096045;23;20006;-81
2022/09/10 03:31:04;;;;;;;10.77;6.90;;;15.90;99.90;;;;;;6077972;23;20470;-82
2022/09/10 03:34:07;;;;;;;9.98;6.95;;;15.90;99.90;;;;;;6029519;23;20002;-82
2022/09/10 03:37:02;;;;;;;11.65;9.82;;;15.90;99.90;;;;;;6053907;23;20003;-82
2022/09/10 03:40:12;;;;;;;;;;;;;;;;;;;;;
2022/09/10 03:44:12;;;;;;;10.75;9.75;;;15.90;99.90;;;;;;6093850;23;20010;-82
2022/09/10 03:52:25;;;;;;;10.13;8.43;;;16.00;99.90;;;;;;5990573;24;20142;-82
2022/09/10 03:56:35;;;;;;;10.93;9.80;;;15.90;99.90;;;;;;6082330;23;20017;-82
2022/09/10 03:59:45;;;;;;;12.27;8.40;;;16.00;99.90;;;;;;6061001;23;20019;-83
2022/09/10 04:03:57;;;;;;;11.15;8.98;;;15.90;99.90;;;;;;5995786;24;20093;-82
2022/09/10 04:11:58;;;;;;;12.43;8.95;;;15.90;99.90;;;;;;6036765;23;19960;-82
2022/09/10 04:23:24;;;;;;;12.50;8.68;;;15.90;99.90;;;;;;6120690;23;20022;-82
2022/09/10 04:27:15;;;;;;;11.85;8.98;;;16.00;99.90;;;;;;6127527;23;20024;-82
2022/09/10 04:31:45;;;;;;;;;;;;;;;;;;;;;
2022/09/10 04:50:16;;;;;;;;;;;;;;;;;;;;;
2022/09/10 04:53:43;;;;;;;9.93;8.93;;;16.00;99.90;;;;;;6071134;23;20007;-82
2022/09/10 04:57:27;;;;;;;11.15;8.02;;;16.00;99.90;;;;;;6056868;23;20139;-81
2022/09/10 05:15:50;;;;;;;9.45;7.90;;;16.10;99.90;;;;;;6106834;23;20010;-82
2022/09/10 05:18:17;;;;;;;9.85;7.82;;;16.10;99.90;;;;;;6049006;23;20219;-80
2022/09/10 05:20:44;;;;;;;7.40;6.70;;;16.10;99.90;;;;;;6076405;23;20002;-80
2022/09/10 05:23:10;;;;;;;7.93;7.00;;;16.20;99.90;;;;;;6097345;23;20014;-80
2022/09/10 05:25:38;;;;;;;9.38;7.60;;;16.20;99.90;;;;;;6098808;23;20046;-80
2022/09/10 05:28:05;;;;;;;8.73;7.70;;;16.20;99.90;;;;;;6073341;23;20009;-80
2022/09/10 05:30:32;;;;;;;10.68;8.40;;;16.20;99.90;;;;;;6072261;23;20022;-78
2022/09/10 05:33:00;;;;;;;7.93;7.13;;;16.20;99.90;;;;;;6071599;23;20014;-80
2022/09/10 05:35:28;;;;;;;8.15;7.20;;;16.20;99.90;;;;;;6048913;23;20010;-79
2022/09/10 05:37:56;;;;;;;12.15;7.40;;;16.20;99.90;;;;;;6073248;23;20011;-78
2022/09/10 05:40:24;;;;;;;10.07;9.10;;;16.20;99.90;;;;;;6072297;23;20010;-79
2022/09/10 05:42:54;;;;;;;14.55;8.93;;;16.30;99.90;;;;;;6031902;23;20017;-81
2022/09/10 05:45:25;;;;;;;11.43;8.00;;;16.30;99.90;;;;;;6108140;23;20015;-81
2022/09/10 05:47:51;;;;;;;10.02;8.18;;;16.30;99.90;;;;;;6077635;23;20022;-80
2022/09/10 05:50:22;;;;;;;12.45;8.93;;;16.30;99.90;;;;;;6051552;23;20480;-81
2022/09/10 05:52:51;;;;;;;9.48;7.22;;;16.30;99.90;;;;;;6051003;23;20003;-81
2022/09/10 05:55:18;;;;;;;9.80;8.13;;;16.30;99.90;;;;;;6099228;23;20002;-81
2022/09/10 05:57:53;;;;;;;11.93;10.77;;;16.40;99.90;;;;;;6075209;23;20010;-81
2022/09/10 06:00:42;;;;;;;11.82;8.48;;;16.40;99.90;;;;;;6083818;23;20010;-80
2022/09/10 06:03:15;;;;;;;16.35;11.63;;;16.40;99.90;;;;;;6050826;23;20017;-81
2022/09/10 06:06:14;;;;;;;15.35;10.70;;;16.50;99.90;;;;;;6096669;23;20060;-80
2022/09/10 06:08:57;;;;;;;11.98;10.77;;;16.50;99.90;;;;;;6096098;23;20037;-82
2022/09/10 06:11:50;;;;;;;10.55;8.38;;;16.40;99.90;;;;;;6047923;23;20292;-82
2022/09/10 06:14:38;;;;;;;9.70;6.97;;;16.30;99.90;;;;;;6084538;23;20010;-82
2022/09/10 06:17:31;;;;;;;8.68;6.78;;;16.30;99.90;;;;;;6075927;23;20014;-82
2022/09/10 06:20:07;;;;;;;9.80;8.68;;;16.30;99.90;;;;;;6051633;23;20011;-82
2022/09/10 06:22:46;;;;;;;8.60;7.43;;;16.30;99.90;;;;;;6052940;23;20003;-82
2022/09/10 06:25:13;;;;;;;7.30;6.00;;;16.20;99.90;;;;;;6053394;23;20016;-83
2022/09/10 06:27:40;;;;;;;8.27;5.95;;;16.20;99.90;;;;;;6087280;23;20006;-81
2022/09/10 06:30:07;;;;;;;8.60;7.25;;;16.10;99.90;;;;;;6058710;23;20010;-82
2022/09/10 06:32:35;;;;;;;11.52;7.45;;;16.10;99.90;;;;;;6104936;23;20003;-83
2022/09/10 06:35:05;;;;;;;8.02;7.22;;;16.10;99.90;;;;;;6081007;23;20002;-83
2022/09/10 06:37:33;;;;;;;14.70;10.48;;;16.00;99.90;;;;;;6103691;23;20347;-82
2022/09/10 06:40:01;;;;;;;10.25;8.23;;;16.00;99.90;;;;;;6051601;23;20015;-83
2022/09/10 06:42:31;;;;;;;8.98;7.78;;;16.00;99.90;;;;;;6052682;23;20020;-82
2022/09/10 06:45:23;;;;;;;8.55;6.78;;;15.90;99.90;;;;;;6084918;23;20002;-82
2022/09/10 06:48:12;;;;;;;17.85;8.02;;;15.90;99.90;;;;;;6099814;23;20023;-83
2022/09/10 06:50:55;;;;;;;9.32;7.28;;;15.90;99.90;;;;;;6051157;23;20017;-83
2022/09/10 06:53:27;;;;;;;7.85;7.05;;;15.80;99.90;;;;;;6109717;23;20021;-83
2022/09/10 06:55:54;;;;;;;12.30;9.30;;;15.80;99.90;;;;;;6099417;23;20010;-82
2022/09/10 06:58:23;;;;;;;9.98;7.63;;;15.70;99.90;;;;;;6073660;23;20002;-83
2022/09/10 07:00:53;;;;;;;11.63;8.45;;;15.70;99.90;;;;;;6049682;23;20446;-82
2022/09/10 07:03:21;;;;;;;8.02;6.47;;;15.70;99.90;;;;;;6073855;23;20010;-83
2022/09/10 07:05:48;;;;;;;10.00;5.85;;;15.70;99.90;;;;;;6074851;23;20009;-83
2022/09/10 07:08:21;;;;;;;6.25;5.20;;;15.70;99.90;;;;;;6073946;23;20347;-82
2022/09/10 07:10:58;;;;;;;6.60;4.45;;;15.70;99.90;;;;;;6048834;23;20011;-83
2022/09/10 07:13:26;;;;;;;9.18;6.20;;;15.70;99.90;;;;;;6083821;23;20607;-82
2022/09/10 07:15:56;;;;;;;11.80;8.03;;;15.80;99.90;;;;;;6027799;23;20062;-82
2022/09/10 07:18:24;;;;;;;10.07;7.55;;;15.80;99.90;;;;;;6072966;23;20006;-82
2022/09/10 07:20:51;;;;;;;8.52;7.60;;;15.80;99.90;;;;;;6074710;23;20010;-82
2022/09/10 07:23:27;;;;;;;9.75;8.65;;;15.80;99.90;;;;;;6051814;23;20010;-82
2022/09/10 07:25:53;;;;;;;16.85;9.35;;;15.80;99.90;;;;;;6074362;23;20021;-82
2022/09/10 07:28:37;;;;;;;11.90;8.95;;;15.80;99.90;;;;;;6097888;23;20014;-82
2022/09/10 07:31:17;;;;;;;10.57;9.10;;;15.80;99.90;;;;;;6104150;23;20343;-83
2022/09/10 07:33:46;;;;;;;21.33;11.98;;;15.90;99.90;;;;;;6113518;23;19998;-82
2022/09/10 07:36:14;;;;;;;13.07;9.50;;;15.90;99.90;;;;;;6103180;23;20493;-82
2022/09/10 07:38:41;;;;;;;16.33;9.65;;;15.90;99.90;;;;;;6101381;23;20007;-82
2022/09/10 07:41:13;;;;;;;11.05;9.15;;;15.90;99.90;;;;;;6078723;23;20013;-83
2022/09/10 07:43:40;;;;;;;7.97;7.18;;;15.90;99.90;;;;;;6112136;23;20009;-83
2022/09/10 07:46:12;;;;;;;8.73;6.03;;;15.90;99.90;;;;;;6053884;23;20017;-83
2022/09/10 07:48:40;;;;;;;10.30;7.80;;;15.90;99.90;;;;;;6100811;23;20014;-83
2022/09/10 07:51:12;;;;;;;9.02;8.10;;;15.90;99.90;;;;;;6054506;23;20003;-83
2022/09/10 07:53:39;;;;;;;15.27;11.75;;;15.90;99.90;;;;;;6053252;23;20013;-83
2022/09/10 07:56:17;;;;;;;15.35;9.38;;;15.90;99.90;;;;;;6052392;23;20007;-83
2022/09/10 07:58:44;;;;;;;9.98;8.68;;;16.00;99.90;;;;;;6085493;23;20007;-83
2022/09/10 08:01:11;;;;;;;12.25;10.05;;;16.00;99.90;;;;;;6077941;23;20009;-83
2022/09/10 08:03:39;;;;;;;8.90;7.38;;;16.00;99.90;;;;;;6080406;23;20011;-82
2022/09/10 08:06:09;;;;;;;5.00;4.60;;;16.00;99.90;;;;;;6055273;23;20006;-82
2022/09/10 08:08:41;;;;;;;4.85;3.45;;;16.00;99.90;;;;;;6077858;23;20320;-83
2022/09/10 08:11:15;;;;;;;4.15;2.95;;;16.00;99.90;;;;;;6075827;23;20011;-82
2022/09/10 08:13:45;;;;;;;4.65;2.80;;;16.00;99.90;;;;;;6075610;23;20002;-82
2022/09/10 08:16:17;;;;;;;7.63;3.35;;;16.00;99.90;;;;;;6076230;23;20007;-82
2022/09/10 08:18:46;;;;;;;;;;;16.00;99.90;;;;;;6085615;23;20010;-83
2022/09/10 08:21:13;;;;;;;2.63;1.95;;;16.00;99.90;;;;;;6075847;23;19916;-83
2022/09/10 08:23:50;;;;;;;2.38;2.05;;;16.10;99.90;;;;;;6076967;23;20017;-83
2022/09/10 08:26:22;;;;;;;3.45;2.90;;;16.10;99.90;;;;;;6052922;23;20015;-83
2022/09/10 08:28:51;;;;;;;4.10;2.95;;;16.10;99.90;;;;;;6086303;23;20465;-83
2022/09/10 08:31:20;;;;;;;3.25;2.95;;;16.10;99.90;;;;;;6085268;23;20025;-83
2022/09/10 08:33:57;;;;;;;3.45;3.15;;;16.00;99.90;;;;;;6088965;23;20011;-83
2022/09/10 08:36:25;;;;;;;3.58;3.25;;;16.10;99.90;;;;;;6081947;23;20028;-83
2022/09/10 08:38:53;;;;;;;4.07;2.90;;;16.10;99.90;;;;;;6090942;23;20010;-83
2022/09/10 08:41:37;;;;;;;5.55;2.85;;;16.10;99.90;;;;;;6070625;23;20447;-83
2022/09/10 08:44:12;;;;;;;3.78;3.40;;;16.10;99.90;;;;;;6088410;23;20010;-82
2022/09/10 08:46:55;;;;;;;4.10;3.38;;;16.20;99.90;;;;;;6054233;23;20347;-83
2022/09/10 08:49:36;;;;;;;3.67;3.08;;;16.20;99.90;;;;;;6088063;23;20010;-83
2022/09/10 08:52:15;;;;;;;3.05;2.70;;;16.30;99.90;;;;;;6052241;23;20012;-84
2022/09/10 08:55:12;;;;;;;4.07;3.63;;;16.30;99.90;;;;;;6075893;23;20082;-83
2022/09/10 08:57:59;;;;;;;4.07;3.15;;;16.30;99.90;;;;;;6100349;23;20017;-83
2022/09/10 09:00:35;;;;;;;3.58;3.05;;;16.30;99.90;;;;;;6054196;23;20350;-83
2022/09/10 09:03:27;;;;;;;3.55;3.25;;;16.30;99.90;;;;;;6053434;23;20014;-83
2022/09/10 09:06:02;;;;;;;3.97;3.22;;;16.30;99.90;;;;;;6078531;23;20017;-83
2022/09/10 09:08:47;;;;;;;4.82;4.43;;;16.40;99.90;;;;;;6111682;23;20007;-82
2022/09/10 09:11:25;;;;;;;;;;;16.30;99.90;;;;;;6081630;23;20006;-83
2022/09/10 09:14:32;;;;;;;5.05;4.07;;;16.30;99.90;;;;;;6112581;23;19912;-82
2022/09/10 09:17:32;;;;;;;2.63;1.90;;;16.30;99.90;;;;;;6033714;23;20011;-83
2022/09/10 09:20:17;;;;;;;2.08;1.50;;;16.20;99.90;;;;;;6090350;23;20468;-83
2022/09/10 09:22:54;;;;;;;1.40;0.90;;;16.30;99.90;;;;;;6088807;23;20002;-83
2022/09/10 09:25:45;;;;;;;1.55;0.93;;;16.30;99.90;;;;;;6054784;23;20516;-84
2022/09/10 09:28:39;;;;;;;2.30;1.65;;;16.30;99.90;;;;;;6077526;23;20020;-84
2022/09/10 09:31:27;;;;;;;3.30;1.60;;;16.40;99.90;;;;;;6053178;23;20026;-83
2022/09/10 09:34:05;;;;;;;2.58;2.13;;;16.50;99.90;;;;;;6053579;23;20009;-84
2022/09/10 09:36:41;;;;;;;3.38;1.88;;;16.50;99.90;;;;;;6059946;23;20334;-83
2022/09/10 09:39:29;;;;;;;2.30;1.85;;;16.50;99.90;;;;;;6078186;23;20323;-83
2022/09/10 09:42:20;;;;;;;2.05;1.85;;;16.60;99.90;;;;;;6089366;23;20315;-84
2022/09/10 09:45:01;;;;;;;2.78;2.40;;;16.70;99.90;;;;;;6086354;23;20002;-83
2022/09/10 09:48:01;;;;;;;3.33;2.80;;;16.70;99.90;;;;;;6082323;23;20005;-86
2022/09/10 09:50:33;;;;;;;2.58;2.20;;;16.70;99.90;;;;;;6050182;23;20457;-82
2022/09/10 09:52:59;;;;;;;2.78;2.40;;;16.70;99.90;;;;;;6077329;23;20006;-82
2022/09/10 09:56:03;;;;;;;1.90;1.70;;;16.70;99.90;;;;;;6102331;23;19999;-84
2022/09/10 09:59:15;;;;;;;2.03;1.40;;;16.70;99.90;;;;;;6022530;23;20336;-85
2022/09/10 10:02:49;;;;;;;1.73;1.13;;;16.80;99.90;;;;;;6056119;23;20367;-84
2022/09/10 10:05:25;;;;;;;1.90;1.30;;;16.80;99.90;;;;;;6016882;23;20343;-83
2022/09/10 10:07:51;;;;;;;2.17;1.40;;;16.90;99.90;;;;;;6102287;23;20017;-83
2022/09/10 10:10:26;;;;;;;1.80;1.58;;;16.90;99.90;;;;;;6076221;23;20015;-84
2022/09/10 10:12:53;;;;;;;1.85;1.20;;;17.00;99.90;;;;;;6051909;23;20359;-84
2022/09/10 10:15:41;;;;;;;1.73;1.10;;;16.90;99.90;;;;;;6075412;23;20467;-85
2022/09/10 10:18:43;;;;;;;1.65;1.15;;;16.90;99.90;;;;;;6074801;23;20003;-84
2022/09/10 10:21:21;;;;;;;1.88;1.23;;;16.90;99.90;;;;;;6051500;23;20010;-83
2022/09/10 10:23:48;;;;;;;1.70;1.45;;;17.00;99.90;;;;;;6053128;23;20007;-83
2022/09/10 10:26:27;;;;;;;1.90;1.70;;;17.00;99.90;;;;;;6052933;23;20018;-84
2022/09/10 10:29:16;;;;;;;1.83;1.45;;;17.00;99.90;;;;;;6110529;23;20010;-83
2022/09/10 10:31:56;;;;;;;2.03;1.80;;;17.10;99.90;;;;;;6055983;23;20015;-84
2022/09/10 10:34:44;;;;;;;4.90;4.50;;;17.20;99.90;;;;;;6054974;23;20037;-84
2022/09/10 10:37:56;;;;;;;6.70;4.90;;;17.40;99.90;;;;;;6077802;23;20490;-83
2022/09/10 10:45:21;;;;;;;;;;;;;;;;;;;;;
2022/09/10 10:48:10;;;;;;;3.00;2.80;;;18.20;99.90;;;;;;6099248;23;20025;-82
2022/09/10 10:51:28;;;;;;;3.22;2.70;;;18.50;99.90;;;;;;6091387;23;20024;-83
2022/09/10 10:54:51;;;;;;;5.15;4.75;;;18.90;99.90;;;;;;6051917;23;20012;-83
2022/09/10 10:57:54;;;;;;;6.40;5.90;;;19.60;99.90;;;;;;6051482;23;20009;-82
2022/09/10 11:00:47;;;;;;;7.30;6.60;;;20.50;99.90;;;;;;6052699;23;20011;-83
2022/09/10 11:03:38;;;;;;;13.07;8.25;;;21.20;99.90;;;;;;6051673;23;20010;-83
2022/09/10 11:06:14;;;;;;;4.72;4.32;;;21.60;99.90;;;;;;6075445;23;20544;-82
2022/09/10 11:08:54;;;;;;;4.35;3.72;;;21.30;99.90;;;;;;6108202;23;20014;-82
2022/09/10 11:11:43;;;;;;;2.17;1.80;;;20.70;99.90;;;;;;6075615;23;20458;-83
2022/09/10 11:14:47;;;;;;;1.98;1.77;;;20.10;99.90;;;;;;6086774;23;20331;-84
2022/09/10 11:17:57;;;;;;;2.47;1.65;;;19.60;99.90;;;;;;6068651;23;20022;-83
2022/09/10 11:21:03;;;;;;;3.65;1.98;;;19.20;99.90;;;;;;6014181;23;20020;-83
2022/09/10 11:24:12;;;;;;;2.65;2.45;;;19.00;99.90;;;;;;6072583;23;20306;-83
2022/09/10 11:27:28;;;;;;;3.85;3.45;;;18.90;99.90;;;;;;6087467;23;20438;-84
2022/09/10 11:30:26;;;;;;;4.07;3.70;;;18.80;99.90;;;;;;6086494;23;20020;-84
2022/09/10 11:33:26;;;;;;;7.30;6.60;;;18.90;99.90;;;;;;6086249;23;20006;-84
2022/09/10 11:36:34;;;;;;;5.80;5.40;;;19.20;99.90;;;;;;6085080;23;20006;-83
2022/09/10 11:39:45;;;;;;;6.25;5.65;;;19.30;99.90;;;;;;6072797;23;20017;-83
2022/09/10 11:42:52;;;;;;;6.15;5.55;;;19.50;99.90;;;;;;6068043;23;20002;-85
2022/09/10 11:46:00;;;;;;;6.43;5.93;;;19.50;99.90;;;;;;6109053;23;20009;-85
2022/09/10 11:49:33;;;;;;;6.07;5.57;;;19.50;99.90;;;;;;6108862;23;20462;-83
2022/09/10 11:52:18;;;;;;;7.78;6.93;;;19.50;99.90;;;;;;6086324;23;20258;-84
2022/09/10 11:54:48;;;;;;;6.88;6.28;;;20.00;99.90;;;;;;6059791;23;20016;-83
2022/09/10 11:58:05;;;;;;;6.00;5.50;;;20.40;99.90;;;;;;6085259;23;20010;-84
2022/09/10 12:01:32;;;;;;;5.20;4.15;;;20.60;99.90;;;;;;6139465;23;20442;-86
2022/09/10 12:04:44;;;;;;;4.32;3.85;;;20.40;99.90;;;;;;6072582;23;20017;-84
2022/09/10 12:08:09;;;;;;;10.55;9.55;;;20.00;99.90;;;;;;6055943;23;20010;-85
2022/09/10 12:11:20;;;;;;;8.50;7.70;;;19.80;99.90;;;;;;6089628;23;20132;-85
2022/09/10 12:14:41;;;;;;;5.95;5.45;;;20.00;99.90;;;;;;6127338;23;20284;-84
2022/09/10 12:21:36;;;;;;;5.00;4.60;;;21.00;99.90;;;;;;6112932;23;20010;-85
2022/09/10 12:24:35;;;;;;;4.78;3.45;;;21.70;99.90;;;;;;6073678;23;20002;-84
2022/09/10 12:27:34;;;;;;;3.33;2.85;;;23.10;99.90;;;;;;6086065;23;20345;-84
2022/09/10 12:30:36;;;;;;;2.55;2.33;;;24.10;99.90;;;;;;6041922;23;20014;-84
2022/09/10 12:33:42;;;;;;;2.30;2.10;;;24.90;99.90;;;;;;6076170;23;20010;-83
2022/09/10 12:36:38;;;;;;;2.08;1.70;;;24.70;99.90;;;;;;6117954;23;20010;-84
2022/09/10 12:39:48;;;;;;;2.20;2.00;;;23.90;99.90;;;;;;6131003;23;20002;-84
2022/09/10 12:42:51;;;;;;;2.60;1.80;;;23.00;99.90;;;;;;6085201;23;20006;-84
2022/09/10 12:46:31;;;;;;;2.38;2.17;;;22.30;99.90;;;;;;6131750;23;20101;-83
2022/09/10 12:49:25;;;;;;;2.97;2.40;;;21.90;99.90;;;;;;6082436;23;20009;-83
2022/09/10 12:53:06;;;;;;;2.28;2.08;;;21.70;99.90;;;;;;6096367;23;20029;-83
2022/09/10 12:56:26;;;;;;;3.88;3.47;;;21.50;99.90;;;;;;6111575;23;20010;-82
2022/09/10 12:59:05;;;;;;;3.55;3.25;;;22.60;99.90;;;;;;6104243;23;20438;-83
2022/09/10 13:02:44;;;;;;;4.18;3.80;;;24.10;99.90;;;;;;6085575;23;20006;-83
2022/09/10 13:05:42;;;;;;;3.03;2.65;;;25.30;99.90;;;;;;6075336;23;20006;-82
2022/09/10 13:08:36;;;;;;;2.17;2.00;;;25.90;99.90;;;;;;6082104;23;20012;-81
2022/09/10 13:11:20;;;;;;;2.50;1.98;;;25.80;99.90;;;;;;6082111;23;20032;-81
2022/09/10 13:14:06;;;;;;;1.35;1.15;;;25.40;99.90;;;;;;6082997;23;20010;-81
2022/09/10 13:16:41;;;;;;;2.17;1.75;;;24.70;99.90;;;;;;6105312;23;20342;-82
2022/09/10 13:19:18;;;;;;;3.00;2.17;;;24.10;99.90;;;;;;6105364;23;20338;-81
2022/09/10 13:21:45;;;;;;;4.57;1.90;;;23.40;99.90;;;;;;6081639;23;20014;-82
2022/09/10 13:24:34;;;;;;;8.10;6.97;;;22.80;99.90;;;;;;6081252;23;20464;-82
2022/09/10 13:27:40;;;;;;;4.70;4.30;;;22.20;99.90;;;;;;6104698;23;20017;-82
2022/09/10 13:30:21;;;;;;;5.10;4.65;;;22.00;99.90;;;;;;6080280;23;20006;-82
2022/09/10 13:33:04;;;;;;;4.75;4.00;;;21.80;99.90;;;;;;6128423;23;20004;-82
2022/09/10 13:39:28;;;;;;;2.75;2.55;;;21.10;99.90;;;;;;6065813;23;20002;-82
2022/09/10 13:42:36;;;;;;;2.20;1.77;;;20.70;99.90;;;;;;6070247;23;20014;-83
2022/09/10 13:45:56;;;;;;;;;;;;;;;;;;;;;
2022/09/10 13:48:59;;;;;;;2.20;1.85;;;20.20;99.90;;;;;;6103941;23;20047;-82
2022/09/10 13:51:44;;;;;;;2.00;1.80;;;20.20;99.90;;;;;;6127044;23;20010;-82
2022/09/10 13:54:33;;;;;;;4.03;3.55;;;20.20;99.90;;;;;;6081073;23;20542;-81
2022/09/10 13:57:29;;;;;;;2.95;2.15;;;20.20;99.90;;;;;;6083474;23;20442;-82
2022/09/10 14:00:22;;;;;;;3.45;3.05;;;20.20;99.90;;;;;;6114398;23;20464;-80
2022/09/10 14:02:57;;;;;;;2.60;2.40;;;20.40;99.90;;;;;;6096635;23;20006;-81
2022/09/10 14:06:16;;;;;;;4.18;3.08;;;20.50;99.90;;;;;;6128224;23;20010;-81
2022/09/10 14:09:00;;;;;;;2.63;2.10;;;20.70;99.90;;;;;;6090485;23;20017;-81
2022/09/10 14:11:37;;;;;;;2.33;1.80;;;21.00;99.90;;;;;;6116461;23;20010;-81
2022/09/10 14:14:16;;;;;;;2.58;2.38;;;21.30;99.90;;;;;;6081130;23;19998;-80
2022/09/10 14:16:50;;;;;;;2.30;1.55;;;21.40;99.90;;;;;;6087445;23;20012;-83
2022/09/10 14:19:36;;;;;;;1.67;1.50;;;21.50;99.90;;;;;;6127886;23;20005;-82
2022/09/10 14:22:28;;;;;;;2.70;1.63;;;21.60;99.90;;;;;;6060415;23;20014;-83
2022/09/10 14:25:05;;;;;;;3.50;2.17;;;21.60;99.90;;;;;;6083977;23;20259;-82
2022/09/10 14:27:40;;;;;;;3.88;1.52;;;21.60;99.90;;;;;;6130962;23;20009;-83
2022/09/10 14:30:23;;;;;;;2.78;1.58;;;21.50;99.90;;;;;;6081183;23;20006;-82
2022/09/10 14:33:33;;;;;;;1.13;0.80;;;21.50;99.90;;;;;;6105510;23;20303;-81
2022/09/10 14:36:20;;;;;;;2.72;0.85;;;21.40;99.90;;;;;;6104531;23;20002;-80
2022/09/10 14:38:59;;;;;;;1.10;0.80;;;21.40;99.90;;;;;;6128237;23;20102;-80
2022/09/10 14:41:28;;;;;;;0.98;0.60;;;21.50;99.90;;;;;;6138477;23;20331;-81
2022/09/10 14:44:29;;;;;;;1.45;0.60;;;21.40;99.90;;;;;;6130350;23;20005;-81
2022/09/10 14:47:06;;;;;;;1.27;0.60;;;21.40;99.90;;;;;;6109786;23;20005;-84
2022/09/10 14:49:34;;;;;;;3.67;2.17;;;21.50;99.90;;;;;;6082982;23;20010;-82
2022/09/10 14:52:04;;;;;;;1.70;1.00;;;21.30;99.90;;;;;;6082932;23;20033;-78
2022/09/10 14:54:33;;;;;;;2.72;2.17;;;21.10;99.90;;;;;;6139384;23;20021;-80
2022/09/10 14:57:05;;;;;;;2.80;2.17;;;20.90;99.90;;;;;;6110615;23;20005;-81
2022/09/10 14:59:37;;;;;;;4.05;3.75;;;20.80;99.90;;;;;;6094379;23;20546;-80
2022/09/10 15:02:27;;;;;;;2.10;1.65;;;20.80;99.90;;;;;;6085816;23;20010;-81
2022/09/10 15:04:54;;;;;;;1.88;1.40;;;21.00;99.90;;;;;;6105793;23;20323;-81
2022/09/10 15:07:22;;;;;;;2.30;1.60;;;21.20;99.90;;;;;;6121820;23;20120;-80
2022/09/10 15:09:52;;;;;;;1.30;0.85;;;21.40;99.90;;;;;;6096887;23;20014;-80
2022/09/10 15:12:26;;;;;;;2.83;0.90;;;21.80;99.90;;;;;;6071484;23;20014;-79
2022/09/10 15:14:53;;;;;;;2.08;0.70;;;22.00;99.90;;;;;;6127884;23;20009;-79
2022/09/10 15:17:19;;;;;;;1.73;0.80;;;22.10;99.90;;;;;;6117521;23;20529;-78
2022/09/10 15:19:47;;;;;;;1.30;0.70;;;22.00;99.90;;;;;;6122997;23;20013;-80
2022/09/10 15:22:29;;;;;;;2.35;0.60;;;21.80;99.90;;;;;;6100943;23;20006;-81
2022/09/10 15:24:56;;;;;;;1.33;0.60;;;21.60;99.90;;;;;;6100714;23;20010;-80
2022/09/10 15:27:22;;;;;;;2.97;1.35;;;21.30;99.90;;;;;;6127514;23;20010;-79
2022/09/10 15:29:48;;;;;;;3.03;1.98;;;21.30;99.90;;;;;;6126534;23;20013;-80
2022/09/10 15:32:17;;;;;;;3.53;2.13;;;21.10;99.90;;;;;;6127713;23;20017;-79
2022/09/10 15:34:43;;;;;;;2.10;1.20;;;21.10;99.90;;;;;;6078368;23;20002;-79
2022/09/10 15:37:10;;;;;;;2.05;0.90;;;21.10;99.90;;;;;;6125564;23;20006;-79
2022/09/10 15:39:39;;;;;;;3.65;1.92;;;21.00;99.90;;;;;;6125766;23;20488;-79
2022/09/10 15:42:08;;;;;;;3.60;1.83;;;21.00;99.90;;;;;;6115364;23;20350;-79
2022/09/10 15:44:36;;;;;;;2.28;1.30;;;21.00;99.90;;;;;;6112210;23;20088;-78
2022/09/10 15:47:02;;;;;;;1.77;1.40;;;21.00;99.90;;;;;;6140938;23;20010;-79
2022/09/10 15:49:28;;;;;;;1.65;1.13;;;21.00;99.90;;;;;;6106618;23;20006;-80
2022/09/10 15:51:56;;;;;;;2.33;0.75;;;21.00;99.90;;;;;;6132177;23;20002;-80
2022/09/10 15:54:22;;;;;;;1.92;0.88;;;21.00;99.90;;;;;;6081974;23;20004;-80
2022/09/10 15:56:49;;;;;;;1.38;0.80;;;20.90;99.90;;;;;;6106172;23;20012;-79
2022/09/10 15:59:15;;;;;;;2.95;1.13;;;20.70;99.90;;;;;;6128992;23;20005;-78
2022/09/10 16:01:41;;;;;;;2.97;1.52;;;20.60;99.90;;;;;;6080466;23;20013;-78